sensor_id;sensor_type;location;lat;lon;timestamp;pressure;altitude;pressure_sealevel;temperature;humidity
67987;BME280;54767;53.800;15.956;2023-02-03T00:00:18;100750.75;;;0.47;79.46
67987;BME280;54767;53.800;15.956;2023-02-03T00:03:12;100743.05;;;0.49;79.47
67987;BME280;54767;53.800;15.956;2023-02-03T00:05:41;100736.12;;;0.48;79.26
67987;BME280;54767;53.800;15.956;2023-02-03T00:08:10;100728.88;;;0.47;79.45
67987;BME280;54767;53.800;15.956;2023-02-03T00:10:40;100722.89;;;0.49;79.50
67987;BME280;54767;53.800;15.956;2023-02-03T00:13:13;100712.58;;;0.49;79.62
67987;BME280;54767;53.800;15.956;2023-02-03T00:15:42;100704.10;;;0.48;79.59
67987;BME280;54767;53.800;15.956;2023-02-03T00:18:16;100702.02;;;0.51;79.36
67987;BME280;54767;53.800;15.956;2023-02-03T00:20:45;100698.04;;;0.54;79.31
67987;BME280;54767;53.800;15.956;2023-02-03T00:23:15;100690.25;;;0.57;79.39
67987;BME280;54767;53.800;15.956;2023-02-03T00:25:43;100680.61;;;0.57;79.61
67987;BME280;54767;53.800;15.956;2023-02-03T00:28:12;100673.88;;;0.56;79.70
67987;BME280;54767;53.800;15.956;2023-02-03T00:30:40;100665.73;;;0.56;79.52
67987;BME280;54767;53.800;15.956;2023-02-03T00:33:09;100651.57;;;0.55;79.64
67987;BME280;54767;53.800;15.956;2023-02-03T00:35:38;100642.92;;;0.54;79.56
67987;BME280;54767;53.800;15.956;2023-02-03T00:38:07;100632.65;;;0.55;79.33
67987;BME280;54767;53.800;15.956;2023-02-03T00:40:35;100627.92;;;0.57;79.43
67987;BME280;54767;53.800;15.956;2023-02-03T00:43:03;100618.55;;;0.59;79.59
67987;BME280;54767;53.800;15.956;2023-02-03T00:45:31;100617.28;;;0.58;79.56
67987;BME280;54767;53.800;15.956;2023-02-03T00:48:00;100611.52;;;0.56;79.55
67987;BME280;54767;53.800;15.956;2023-02-03T00:50:28;100608.36;;;0.55;79.68
67987;BME280;54767;53.800;15.956;2023-02-03T00:56:32;100587.84;;;0.51;79.52
67987;BME280;54767;53.800;15.956;2023-02-03T00:59:00;100597.16;;;0.55;79.33
67987;BME280;54767;53.800;15.956;2023-02-03T01:01:32;100601.58;;;0.54;79.72
67987;BME280;54767;53.800;15.956;2023-02-03T01:04:00;100609.92;;;0.52;79.42
67987;BME280;54767;53.800;15.956;2023-02-03T01:06:29;100610.43;;;0.52;79.87
67987;BME280;54767;53.800;15.956;2023-02-03T01:08:57;100608.04;;;0.52;79.91
67987;BME280;54767;53.800;15.956;2023-02-03T01:11:26;100595.89;;;0.54;79.64
67987;BME280;54767;53.800;15.956;2023-02-03T01:13:55;100590.15;;;0.56;79.70
67987;BME280;54767;53.800;15.956;2023-02-03T01:16:27;100584.76;;;0.58;79.93
67987;BME280;54767;53.800;15.956;2023-02-03T01:18:57;100581.92;;;0.57;79.72
67987;BME280;54767;53.800;15.956;2023-02-03T01:21:26;100585.36;;;0.57;80.04
67987;BME280;54767;53.800;15.956;2023-02-03T01:23:55;100578.98;;;0.56;79.99
67987;BME280;54767;53.800;15.956;2023-02-03T01:26:23;100576.27;;;0.57;79.72
67987;BME280;54767;53.800;15.956;2023-02-03T01:31:30;100562.70;;;0.61;80.04
67987;BME280;54767;53.800;15.956;2023-02-03T01:34:02;100560.20;;;0.60;79.74
67987;BME280;54767;53.800;15.956;2023-02-03T01:36:32;100552.38;;;0.58;79.74
67987;BME280;54767;53.800;15.956;2023-02-03T01:39:02;100541.58;;;0.56;79.87
67987;BME280;54767;53.800;15.956;2023-02-03T01:41:32;100531.92;;;0.55;79.73
67987;BME280;54767;53.800;15.956;2023-02-03T01:44:01;100518.60;;;0.54;79.79
67987;BME280;54767;53.800;15.956;2023-02-03T01:46:59;100506.35;;;0.54;79.94
67987;BME280;54767;53.800;15.956;2023-02-03T01:49:34;100494.95;;;0.53;80.09
67987;BME280;54767;53.800;15.956;2023-02-03T01:52:03;100486.51;;;0.53;79.78
67987;BME280;54767;53.800;15.956;2023-02-03T01:54:36;100487.61;;;0.51;80.05
67987;BME280;54767;53.800;15.956;2023-02-03T01:57:17;100484.81;;;0.50;79.92
67987;BME280;54767;53.800;15.956;2023-02-03T01:59:47;100489.47;;;0.50;80.00
67987;BME280;54767;53.800;15.956;2023-02-03T02:02:16;100488.55;;;0.52;80.00
67987;BME280;54767;53.800;15.956;2023-02-03T02:04:54;100487.60;;;0.54;80.05
67987;BME280;54767;53.800;15.956;2023-02-03T02:07:24;100477.41;;;0.53;80.38
67987;BME280;54767;53.800;15.956;2023-02-03T02:09:54;100466.64;;;0.51;80.02
67987;BME280;54767;53.800;15.956;2023-02-03T02:12:23;100461.13;;;0.51;79.97
67987;BME280;54767;53.800;15.956;2023-02-03T02:14:51;100457.36;;;0.52;80.28
67987;BME280;54767;53.800;15.956;2023-02-03T02:17:35;100449.48;;;0.53;80.15
67987;BME280;54767;53.800;15.956;2023-02-03T02:20:24;100448.62;;;0.53;80.19
67987;BME280;54767;53.800;15.956;2023-02-03T02:35:04;100407.88;;;0.54;80.16
67987;BME280;54767;53.800;15.956;2023-02-03T02:45:30;100371.44;;;0.48;79.99
67987;BME280;54767;53.800;15.956;2023-02-03T02:48:09;100355.75;;;0.48;80.00
67987;BME280;54767;53.800;15.956;2023-02-03T02:50:44;100354.91;;;0.48;80.18
67987;BME280;54767;53.800;15.956;2023-02-03T02:53:14;100351.16;;;0.49;80.10
67987;BME280;54767;53.800;15.956;2023-02-03T02:55:45;100346.17;;;0.49;79.94
67987;BME280;54767;53.800;15.956;2023-02-03T02:58:16;100344.05;;;0.48;80.19
67987;BME280;54767;53.800;15.956;2023-02-03T03:00:46;100337.96;;;0.46;80.14
67987;BME280;54767;53.800;15.956;2023-02-03T03:03:18;100339.67;;;0.46;80.29
67987;BME280;54767;53.800;15.956;2023-02-03T03:05:54;100340.80;;;0.48;80.22
67987;BME280;54767;53.800;15.956;2023-02-03T03:08:31;100334.44;;;0.49;80.15
67987;BME280;54767;53.800;15.956;2023-02-03T03:11:01;100338.91;;;0.48;80.05
67987;BME280;54767;53.800;15.956;2023-02-03T03:13:38;100337.48;;;0.47;80.21
67987;BME280;54767;53.800;15.956;2023-02-03T03:16:09;100329.66;;;0.46;80.20
67987;BME280;54767;53.800;15.956;2023-02-03T03:18:52;100326.00;;;0.44;80.40
67987;BME280;54767;53.800;15.956;2023-02-03T03:21:26;100325.94;;;0.47;80.44
67987;BME280;54767;53.800;15.956;2023-02-03T03:23:58;100324.10;;;0.48;79.96
67987;BME280;54767;53.800;15.956;2023-02-03T03:26:39;100317.19;;;0.48;80.04
67987;BME280;54767;53.800;15.956;2023-02-03T03:29:23;100314.43;;;0.48;80.32
67987;BME280;54767;53.800;15.956;2023-02-03T03:31:53;100308.55;;;0.47;79.92
67987;BME280;54767;53.800;15.956;2023-02-03T03:34:21;100301.66;;;0.47;80.30
67987;BME280;54767;53.800;15.956;2023-02-03T03:36:57;100294.61;;;0.47;80.07
67987;BME280;54767;53.800;15.956;2023-02-03T03:39:55;100296.89;;;0.48;80.06
67987;BME280;54767;53.800;15.956;2023-02-03T03:48:06;100269.95;;;0.50;80.17
67987;BME280;54767;53.800;15.956;2023-02-03T03:50:43;100265.48;;;0.51;80.45
67987;BME280;54767;53.800;15.956;2023-02-03T03:53:15;100252.38;;;0.50;80.10
67987;BME280;54767;53.800;15.956;2023-02-03T03:55:51;100246.45;;;0.53;80.17
67987;BME280;54767;53.800;15.956;2023-02-03T03:58:27;100243.08;;;0.54;79.97
67987;BME280;54767;53.800;15.956;2023-02-03T04:00:59;100241.95;;;0.56;80.00
67987;BME280;54767;53.800;15.956;2023-02-03T04:03:43;100244.38;;;0.57;79.94
67987;BME280;54767;53.800;15.956;2023-02-03T04:06:13;100242.17;;;0.57;79.97
67987;BME280;54767;53.800;15.956;2023-02-03T04:08:51;100234.59;;;0.57;80.06
67987;BME280;54767;53.800;15.956;2023-02-03T04:11:20;100221.82;;;0.56;80.06
67987;BME280;54767;53.800;15.956;2023-02-03T04:14:07;100216.64;;;0.56;80.02
67987;BME280;54767;53.800;15.956;2023-02-03T04:16:35;100210.10;;;0.56;79.78
67987;BME280;54767;53.800;15.956;2023-02-03T04:19:04;100202.55;;;0.57;79.82
67987;BME280;54767;53.800;15.956;2023-02-03T04:21:35;100191.41;;;0.58;79.99
67987;BME280;54767;53.800;15.956;2023-02-03T04:24:03;100186.39;;;0.57;79.86
67987;BME280;54767;53.800;15.956;2023-02-03T04:26:31;100183.67;;;0.58;80.04
67987;BME280;54767;53.800;15.956;2023-02-03T04:29:00;100182.92;;;0.57;80.04
67987;BME280;54767;53.800;15.956;2023-02-03T04:31:28;100177.10;;;0.58;79.97
67987;BME280;54767;53.800;15.956;2023-02-03T04:33:57;100167.94;;;0.57;80.25
67987;BME280;54767;53.800;15.956;2023-02-03T04:36:25;100161.27;;;0.58;80.16
67987;BME280;54767;53.800;15.956;2023-02-03T04:38:53;100163.41;;;0.60;80.17
67987;BME280;54767;53.800;15.956;2023-02-03T04:41:21;100162.98;;;0.62;80.18
67987;BME280;54767;53.800;15.956;2023-02-03T04:43:50;100160.44;;;0.63;80.07
67987;BME280;54767;53.800;15.956;2023-02-03T04:46:18;100158.91;;;0.63;80.19
67987;BME280;54767;53.800;15.956;2023-02-03T04:48:47;100147.59;;;0.64;80.14
67987;BME280;54767;53.800;15.956;2023-02-03T04:51:16;100138.61;;;0.64;80.36
67987;BME280;54767;53.800;15.956;2023-02-03T04:53:44;100131.52;;;0.63;80.27
67987;BME280;54767;53.800;15.956;2023-02-03T04:56:12;100124.83;;;0.64;80.34
67987;BME280;54767;53.800;15.956;2023-02-03T04:58:42;100115.05;;;0.64;80.33
67987;BME280;54767;53.800;15.956;2023-02-03T05:01:10;100109.24;;;0.66;80.31
67987;BME280;54767;53.800;15.956;2023-02-03T05:03:39;100105.86;;;0.67;80.68
67987;BME280;54767;53.800;15.956;2023-02-03T05:06:07;100096.05;;;0.67;80.49
67987;BME280;54767;53.800;15.956;2023-02-03T05:08:35;100086.60;;;0.68;80.43
67987;BME280;54767;53.800;15.956;2023-02-03T05:11:04;100075.05;;;0.68;80.47
67987;BME280;54767;53.800;15.956;2023-02-03T05:13:33;100072.67;;;0.69;80.57
67987;BME280;54767;53.800;15.956;2023-02-03T05:16:01;100058.23;;;0.70;80.51
67987;BME280;54767;53.800;15.956;2023-02-03T05:18:30;100046.04;;;0.71;80.53
67987;BME280;54767;53.800;15.956;2023-02-03T05:20:58;100041.23;;;0.71;80.61
67987;BME280;54767;53.800;15.956;2023-02-03T05:23:28;100030.67;;;0.74;80.63
67987;BME280;54767;53.800;15.956;2023-02-03T05:25:56;100027.80;;;0.76;80.62
67987;BME280;54767;53.800;15.956;2023-02-03T05:28:25;100021.20;;;0.74;80.72
67987;BME280;54767;53.800;15.956;2023-02-03T05:31:01;100008.72;;;0.76;80.76
67987;BME280;54767;53.800;15.956;2023-02-03T05:33:33;100002.11;;;0.80;80.83
67987;BME280;54767;53.800;15.956;2023-02-03T05:36:01;99993.94;;;0.82;80.58
67987;BME280;54767;53.800;15.956;2023-02-03T05:38:30;99981.72;;;0.82;80.77
67987;BME280;54767;53.800;15.956;2023-02-03T05:40:58;99970.80;;;0.85;80.86
67987;BME280;54767;53.800;15.956;2023-02-03T05:43:45;99965.38;;;0.87;80.76
67987;BME280;54767;53.800;15.956;2023-02-03T05:46:13;99950.42;;;0.88;80.92
67987;BME280;54767;53.800;15.956;2023-02-03T05:48:41;99939.75;;;0.89;80.87
67987;BME280;54767;53.800;15.956;2023-02-03T05:51:10;99930.82;;;0.89;80.73
67987;BME280;54767;53.800;15.956;2023-02-03T05:53:38;99922.42;;;0.91;81.01
67987;BME280;54767;53.800;15.956;2023-02-03T05:56:07;99913.38;;;0.93;81.01
67987;BME280;54767;53.800;15.956;2023-02-03T05:58:35;99900.75;;;0.97;80.67
67987;BME280;54767;53.800;15.956;2023-02-03T06:01:03;99886.69;;;0.99;80.74
67987;BME280;54767;53.800;15.956;2023-02-03T06:03:31;99871.89;;;0.99;80.77
67987;BME280;54767;53.800;15.956;2023-02-03T06:06:00;99867.41;;;0.99;80.66
67987;BME280;54767;53.800;15.956;2023-02-03T06:08:28;99860.48;;;0.98;80.65
67987;BME280;54767;53.800;15.956;2023-02-03T06:10:57;99850.27;;;0.96;80.93
67987;BME280;54767;53.800;15.956;2023-02-03T06:13:26;99842.33;;;0.96;80.95
67987;BME280;54767;53.800;15.956;2023-02-03T06:15:55;99834.60;;;0.98;80.91
67987;BME280;54767;53.800;15.956;2023-02-03T06:18:23;99822.35;;;0.97;80.80
67987;BME280;54767;53.800;15.956;2023-02-03T06:20:52;99815.48;;;0.98;80.87
67987;BME280;54767;53.800;15.956;2023-02-03T06:23:20;99801.36;;;0.98;81.01
67987;BME280;54767;53.800;15.956;2023-02-03T06:25:49;99791.88;;;0.98;80.93
67987;BME280;54767;53.800;15.956;2023-02-03T06:28:18;99786.23;;;0.98;81.09
67987;BME280;54767;53.800;15.956;2023-02-03T06:30:50;99778.78;;;0.97;81.02
67987;BME280;54767;53.800;15.956;2023-02-03T06:33:20;99767.54;;;0.96;81.15
67987;BME280;54767;53.800;15.956;2023-02-03T06:35:48;99766.66;;;0.96;81.07
67987;BME280;54767;53.800;15.956;2023-02-03T06:38:17;99756.37;;;0.97;81.17
67987;BME280;54767;53.800;15.956;2023-02-03T06:40:46;99752.97;;;0.98;81.26
67987;BME280;54767;53.800;15.956;2023-02-03T06:43:15;99739.36;;;0.99;81.15
67987;BME280;54767;53.800;15.956;2023-02-03T06:45:45;99719.78;;;1.01;81.22
67987;BME280;54767;53.800;15.956;2023-02-03T06:48:14;99709.85;;;1.02;81.41
67987;BME280;54767;53.800;15.956;2023-02-03T06:50:43;99698.33;;;1.03;81.27
67987;BME280;54767;53.800;15.956;2023-02-03T06:53:15;99690.95;;;1.04;81.30
67987;BME280;54767;53.800;15.956;2023-02-03T06:55:45;99673.59;;;1.05;81.49
67987;BME280;54767;53.800;15.956;2023-02-03T06:58:14;99662.26;;;1.06;81.55
67987;BME280;54767;53.800;15.956;2023-02-03T07:00:43;99658.88;;;1.08;81.41
67987;BME280;54767;53.800;15.956;2023-02-03T07:03:11;99646.64;;;1.08;81.33
67987;BME280;54767;53.800;15.956;2023-02-03T07:05:39;99639.37;;;1.08;81.24
67987;BME280;54767;53.800;15.956;2023-02-03T07:08:07;99635.34;;;1.06;81.59
67987;BME280;54767;53.800;15.956;2023-02-03T07:10:36;99626.89;;;1.05;81.52
67987;BME280;54767;53.800;15.956;2023-02-03T07:13:05;99609.17;;;1.06;81.65
67987;BME280;54767;53.800;15.956;2023-02-03T07:15:34;99600.98;;;1.09;81.62
67987;BME280;54767;53.800;15.956;2023-02-03T07:18:02;99594.29;;;1.10;81.66
67987;BME280;54767;53.800;15.956;2023-02-03T07:20:31;99578.23;;;1.09;81.66
67987;BME280;54767;53.800;15.956;2023-02-03T07:22:59;99566.35;;;1.09;81.91
67987;BME280;54767;53.800;15.956;2023-02-03T07:25:28;99562.02;;;1.08;81.70
67987;BME280;54767;53.800;15.956;2023-02-03T07:27:57;99554.33;;;1.10;81.70
67987;BME280;54767;53.800;15.956;2023-02-03T07:30:26;99542.46;;;1.11;81.87
67987;BME280;54767;53.800;15.956;2023-02-03T07:32:54;99538.39;;;1.14;81.93
67987;BME280;54767;53.800;15.956;2023-02-03T07:35:23;99528.23;;;1.13;81.89
67987;BME280;54767;53.800;15.956;2023-02-03T07:37:52;99520.77;;;1.12;82.15
67987;BME280;54767;53.800;15.956;2023-02-03T07:40:21;99514.05;;;1.12;82.17
67987;BME280;54767;53.800;15.956;2023-02-03T07:42:49;99501.86;;;1.13;81.95
67987;BME280;54767;53.800;15.956;2023-02-03T07:45:17;99496.53;;;1.15;82.10
67987;BME280;54767;53.800;15.956;2023-02-03T07:47:46;99490.36;;;1.16;82.09
67987;BME280;54767;53.800;15.956;2023-02-03T07:50:14;99480.92;;;1.17;82.03
67987;BME280;54767;53.800;15.956;2023-02-03T07:52:43;99464.55;;;1.17;82.03
67987;BME280;54767;53.800;15.956;2023-02-03T07:55:11;99444.94;;;1.18;81.99
67987;BME280;54767;53.800;15.956;2023-02-03T07:57:39;99445.77;;;1.17;82.19
67987;BME280;54767;53.800;15.956;2023-02-03T08:00:12;99441.10;;;1.17;82.29
67987;BME280;54767;53.800;15.956;2023-02-03T08:02:42;99430.98;;;1.18;82.25
67987;BME280;54767;53.800;15.956;2023-02-03T08:05:11;99416.73;;;1.21;82.43
67987;BME280;54767;53.800;15.956;2023-02-03T08:07:40;99419.38;;;1.23;82.44
67987;BME280;54767;53.800;15.956;2023-02-03T08:10:10;99410.08;;;1.23;82.33
67987;BME280;54767;53.800;15.956;2023-02-03T08:12:40;99393.33;;;1.22;82.16
67987;BME280;54767;53.800;15.956;2023-02-03T08:15:12;99383.46;;;1.20;82.33
67987;BME280;54767;53.800;15.956;2023-02-03T08:17:41;99386.91;;;1.20;82.31
67987;BME280;54767;53.800;15.956;2023-02-03T08:20:11;99379.38;;;1.22;82.32
67987;BME280;54767;53.800;15.956;2023-02-03T08:22:40;99370.48;;;1.25;82.58
67987;BME280;54767;53.800;15.956;2023-02-03T08:25:09;99357.63;;;1.27;82.44
67987;BME280;54767;53.800;15.956;2023-02-03T08:27:37;99362.65;;;1.29;82.43
67987;BME280;54767;53.800;15.956;2023-02-03T08:30:08;99356.73;;;1.27;82.68
67987;BME280;54767;53.800;15.956;2023-02-03T08:32:38;99347.92;;;1.26;82.53
67987;BME280;54767;53.800;15.956;2023-02-03T08:35:07;99334.89;;;1.28;82.51
67987;BME280;54767;53.800;15.956;2023-02-03T08:37:35;99324.05;;;1.29;82.59
67987;BME280;54767;53.800;15.956;2023-02-03T08:40:04;99311.02;;;1.31;82.67
67987;BME280;54767;53.800;15.956;2023-02-03T08:42:33;99297.95;;;1.33;82.61
67987;BME280;54767;53.800;15.956;2023-02-03T08:45:02;99291.59;;;1.33;82.64
67987;BME280;54767;53.800;15.956;2023-02-03T08:47:32;99292.98;;;1.34;82.64
67987;BME280;54767;53.800;15.956;2023-02-03T08:50:00;99291.11;;;1.36;82.91
67987;BME280;54767;53.800;15.956;2023-02-03T08:52:29;99289.61;;;1.38;82.84
67987;BME280;54767;53.800;15.956;2023-02-03T08:54:57;99276.90;;;1.39;82.73
67987;BME280;54767;53.800;15.956;2023-02-03T08:57:25;99266.40;;;1.41;82.84
67987;BME280;54767;53.800;15.956;2023-02-03T08:59:53;99261.28;;;1.43;82.92
67987;BME280;54767;53.800;15.956;2023-02-03T09:02:22;99252.66;;;1.43;82.67
67987;BME280;54767;53.800;15.956;2023-02-03T09:04:50;99233.16;;;1.42;82.93
67987;BME280;54767;53.800;15.956;2023-02-03T09:07:19;99226.46;;;1.43;83.14
67987;BME280;54767;53.800;15.956;2023-02-03T09:09:47;99214.98;;;1.46;82.97
67987;BME280;54767;53.800;15.956;2023-02-03T09:12:16;99212.23;;;1.47;82.85
67987;BME280;54767;53.800;15.956;2023-02-03T09:14:44;99198.33;;;1.49;83.05
67987;BME280;54767;53.800;15.956;2023-02-03T09:17:12;99187.04;;;1.53;83.07
67987;BME280;54767;53.800;15.956;2023-02-03T09:19:41;99181.38;;;1.55;82.86
67987;BME280;54767;53.800;15.956;2023-02-03T09:22:09;99180.00;;;1.56;82.87
67987;BME280;54767;53.800;15.956;2023-02-03T09:24:38;99176.39;;;1.56;83.00
67987;BME280;54767;53.800;15.956;2023-02-03T09:27:06;99168.14;;;1.57;83.16
67987;BME280;54767;53.800;15.956;2023-02-03T09:29:34;99152.98;;;1.58;83.13
67987;BME280;54767;53.800;15.956;2023-02-03T09:32:02;99151.97;;;1.59;83.10
67987;BME280;54767;53.800;15.956;2023-02-03T09:34:35;99141.67;;;1.62;82.99
67987;BME280;54767;53.800;15.956;2023-02-03T09:37:04;99138.98;;;1.65;83.12
67987;BME280;54767;53.800;15.956;2023-02-03T09:39:32;99135.42;;;1.68;83.04
67987;BME280;54767;53.800;15.956;2023-02-03T09:45:15;99126.89;;;1.72;83.06
67987;BME280;54767;53.800;15.956;2023-02-03T09:47:44;99118.79;;;1.73;83.21
67987;BME280;54767;53.800;15.956;2023-02-03T09:50:21;99113.13;;;1.74;83.28
67987;BME280;54767;53.800;15.956;2023-02-03T09:52:53;99102.27;;;1.75;83.26
67987;BME280;54767;53.800;15.956;2023-02-03T09:55:42;99094.36;;;1.76;83.38
67987;BME280;54767;53.800;15.956;2023-02-03T09:58:16;99092.88;;;1.79;83.24
67987;BME280;54767;53.800;15.956;2023-02-03T10:00:52;99089.13;;;1.82;83.44
67987;BME280;54767;53.800;15.956;2023-02-03T10:03:50;99080.36;;;1.84;83.52
67987;BME280;54767;53.800;15.956;2023-02-03T10:06:27;99062.76;;;1.84;83.50
67987;BME280;54767;53.800;15.956;2023-02-03T10:15:11;99047.48;;;1.97;83.79
67987;BME280;54767;53.800;15.956;2023-02-03T10:17:51;99040.45;;;2.00;83.72
67987;BME280;54767;53.800;15.956;2023-02-03T10:20:33;99021.17;;;2.03;83.88
67987;BME280;54767;53.800;15.956;2023-02-03T10:23:11;99034.30;;;2.04;83.87
67987;BME280;54767;53.800;15.956;2023-02-03T10:25:50;99034.70;;;2.07;83.98
67987;BME280;54767;53.800;15.956;2023-02-03T10:28:29;99024.56;;;2.10;83.93
67987;BME280;54767;53.800;15.956;2023-02-03T10:31:00;99010.11;;;2.13;83.97
67987;BME280;54767;53.800;15.956;2023-02-03T10:33:30;98996.34;;;2.16;84.10
67987;BME280;54767;53.800;15.956;2023-02-03T10:41:15;99003.39;;;2.25;84.22
67987;BME280;54767;53.800;15.956;2023-02-03T10:43:49;98996.89;;;2.29;84.46
67987;BME280;54767;53.800;15.956;2023-02-03T10:46:31;98998.67;;;2.32;84.31
67987;BME280;54767;53.800;15.956;2023-02-03T10:49:00;98998.71;;;2.35;84.29
67987;BME280;54767;53.800;15.956;2023-02-03T10:51:50;98989.60;;;2.38;84.44
67987;BME280;54767;53.800;15.956;2023-02-03T10:54:35;98987.93;;;2.41;84.78
67987;BME280;54767;53.800;15.956;2023-02-03T10:57:13;98991.45;;;2.46;84.81
67987;BME280;54767;53.800;15.956;2023-02-03T10:59:46;98984.60;;;2.50;84.66
67987;BME280;54767;53.800;15.956;2023-02-03T11:02:23;98983.12;;;2.55;84.85
67987;BME280;54767;53.800;15.956;2023-02-03T11:07:43;98976.13;;;2.62;84.83
67987;BME280;54767;53.800;15.956;2023-02-03T11:13:18;98978.48;;;2.69;85.00
67987;BME280;54767;53.800;15.956;2023-02-03T11:18:30;98965.29;;;2.78;85.18
67987;BME280;54767;53.800;15.956;2023-02-03T11:21:06;98956.00;;;2.82;85.28
67987;BME280;54767;53.800;15.956;2023-02-03T11:23:40;98957.09;;;2.86;85.29
67987;BME280;54767;53.800;15.956;2023-02-03T11:26:14;98965.27;;;2.90;85.42
67987;BME280;54767;53.800;15.956;2023-02-03T11:28:45;98965.33;;;2.96;85.34
67987;BME280;54767;53.800;15.956;2023-02-03T11:31:23;98967.80;;;3.00;85.36
67987;BME280;54767;53.800;15.956;2023-02-03T11:33:55;98966.13;;;3.04;85.50
67987;BME280;54767;53.800;15.956;2023-02-03T11:36:26;98968.07;;;3.08;85.62
67987;BME280;54767;53.800;15.956;2023-02-03T11:39:22;98973.81;;;3.12;85.59
67987;BME280;54767;53.800;15.956;2023-02-03T11:41:51;98969.52;;;3.14;85.60
67987;BME280;54767;53.800;15.956;2023-02-03T11:44:25;98967.30;;;3.16;85.50
67987;BME280;54767;53.800;15.956;2023-02-03T11:47:02;98964.23;;;3.19;85.86
67987;BME280;54767;53.800;15.956;2023-02-03T11:55:26;98965.91;;;3.31;85.92
67987;BME280;54767;53.800;15.956;2023-02-03T11:58:12;98969.92;;;3.36;85.67
67987;BME280;54767;53.800;15.956;2023-02-03T12:14:26;98970.98;;;3.73;86.28
67987;BME280;54767;53.800;15.956;2023-02-03T12:17:17;98980.90;;;3.80;85.90
67987;BME280;54767;53.800;15.956;2023-02-03T12:23:03;98973.88;;;3.88;86.24
67987;BME280;54767;53.800;15.956;2023-02-03T12:25:43;98969.94;;;3.92;86.15
67987;BME280;54767;53.800;15.956;2023-02-03T12:31:06;98976.73;;;3.97;86.41
67987;BME280;54767;53.800;15.956;2023-02-03T12:33:43;98976.58;;;3.99;86.33
67987;BME280;54767;53.800;15.956;2023-02-03T12:36:39;98976.75;;;4.01;85.76
67987;BME280;54767;53.800;15.956;2023-02-03T12:39:30;98987.98;;;4.00;85.95
67987;BME280;54767;53.800;15.956;2023-02-03T12:42:30;98981.92;;;3.99;85.89
67987;BME280;54767;53.800;15.956;2023-02-03T12:45:16;98984.17;;;3.98;85.89
67987;BME280;54767;53.800;15.956;2023-02-03T12:47:55;98976.55;;;3.97;86.03
67987;BME280;54767;53.800;15.956;2023-02-03T12:50:44;98981.75;;;3.98;85.85
67987;BME280;54767;53.800;15.956;2023-02-03T12:53:40;98980.70;;;3.98;86.12
67987;BME280;54767;53.800;15.956;2023-02-03T12:56:15;98980.02;;;3.99;85.78
67987;BME280;54767;53.800;15.956;2023-02-03T12:58:59;98986.95;;;4.00;86.13
67987;BME280;54767;53.800;15.956;2023-02-03T13:01:33;98988.52;;;4.01;86.07
67987;BME280;54767;53.800;15.956;2023-02-03T13:07:04;98991.66;;;4.04;86.28
67987;BME280;54767;53.800;15.956;2023-02-03T13:09:46;98992.02;;;4.04;86.05
67987;BME280;54767;53.800;15.956;2023-02-03T13:12:38;98994.27;;;4.03;85.99
67987;BME280;54767;53.800;15.956;2023-02-03T13:17:56;98997.91;;;4.06;86.03
67987;BME280;54767;53.800;15.956;2023-02-03T13:20:31;98993.77;;;4.07;85.54
67987;BME280;54767;53.800;15.956;2023-02-03T13:23:10;98994.46;;;4.07;85.95
67987;BME280;54767;53.800;15.956;2023-02-03T13:32:09;99006.27;;;4.11;85.74
67987;BME280;54767;53.800;15.956;2023-02-03T13:40:55;99010.12;;;4.16;85.95
67987;BME280;54767;53.800;15.956;2023-02-03T13:43:29;99016.17;;;4.16;85.75
67987;BME280;54767;53.800;15.956;2023-02-03T13:46:22;99016.15;;;4.14;85.55
67987;BME280;54767;53.800;15.956;2023-02-03T13:48:52;99028.44;;;4.13;86.06
67987;BME280;54767;53.800;15.956;2023-02-03T13:51:25;99028.44;;;4.12;85.61
67987;BME280;54767;53.800;15.956;2023-02-03T13:54:06;99034.15;;;4.13;86.26
67987;BME280;54767;53.800;15.956;2023-02-03T13:56:36;99029.98;;;4.14;85.84
67987;BME280;54767;53.800;15.956;2023-02-03T14:01:41;99044.58;;;4.17;85.91
67987;BME280;54767;53.800;15.956;2023-02-03T14:09:38;99040.31;;;4.22;85.74
67987;BME280;54767;53.800;15.956;2023-02-03T14:12:18;99047.59;;;4.25;85.56
67987;BME280;54767;53.800;15.956;2023-02-03T14:20:31;99060.08;;;4.27;85.44
67987;BME280;54767;53.800;15.956;2023-02-03T14:25:58;99066.69;;;4.29;85.54
67987;BME280;54767;53.800;15.956;2023-02-03T14:28:40;99073.61;;;4.30;85.52
67987;BME280;54767;53.800;15.956;2023-02-03T14:31:22;99072.92;;;4.31;85.69
67987;BME280;54767;53.800;15.956;2023-02-03T14:34:05;99087.81;;;4.31;85.55
67987;BME280;54767;53.800;15.956;2023-02-03T14:36:47;99078.95;;;4.28;85.86
67987;BME280;54767;53.800;15.956;2023-02-03T14:49:53;99092.27;;;4.24;85.69
67987;BME280;54767;53.800;15.956;2023-02-03T14:52:36;99089.66;;;4.24;85.56
67987;BME280;54767;53.800;15.956;2023-02-03T14:56:04;99097.29;;;4.25;85.73
67987;BME280;54767;53.800;15.956;2023-02-03T14:58:27;99094.34;;;4.22;85.82
67987;BME280;54767;53.800;15.956;2023-02-03T15:01:03;99092.23;;;4.21;85.87
67987;BME280;54767;53.800;15.956;2023-02-03T15:03:32;99098.81;;;4.20;85.81
67987;BME280;54767;53.800;15.956;2023-02-03T15:06:04;99095.89;;;4.22;86.04
67987;BME280;54767;53.800;15.956;2023-02-03T15:08:41;99101.45;;;4.24;86.02
67987;BME280;54767;53.800;15.956;2023-02-03T15:11:25;99096.41;;;4.24;85.78
67987;BME280;54767;53.800;15.956;2023-02-03T15:13:56;99095.02;;;4.23;86.10
67987;BME280;54767;53.800;15.956;2023-02-03T15:16:24;99091.55;;;4.21;85.64
67987;BME280;54767;53.800;15.956;2023-02-03T15:18:59;99094.83;;;4.21;85.75
67987;BME280;54767;53.800;15.956;2023-02-03T15:21:29;99093.11;;;4.22;85.61
67987;BME280;54767;53.800;15.956;2023-02-03T15:23:58;99102.28;;;4.20;86.09
67987;BME280;54767;53.800;15.956;2023-02-03T15:26:26;99104.54;;;4.20;85.69
67987;BME280;54767;53.800;15.956;2023-02-03T15:29:02;99108.67;;;4.20;85.58